createdAt,value
2018-04-24T00:01:11.971Z,8.00
2018-04-24T00:02:11.942Z,9.20
2018-04-24T00:04:04.832Z,6.30
2018-04-24T00:05:04.807Z,8.20
2018-04-24T00:06:58.275Z,8.50
2018-04-24T00:07:57.667Z,10.90
2018-04-24T00:09:50.603Z,10.70
2018-04-24T00:10:50.539Z,11.60
2018-04-24T00:12:43.931Z,9.50
2018-04-24T00:13:43.897Z,8.30
2018-04-24T00:15:37.278Z,9.70
2018-04-24T00:16:37.252Z,7.90
2018-04-24T00:18:30.146Z,8.80
2018-04-24T00:19:30.117Z,10.60
2018-04-24T00:21:23.014Z,6.90
2018-04-24T00:22:22.985Z,11.60
2018-04-24T00:24:15.882Z,10.80
2018-04-24T00:25:15.852Z,10.90
2018-04-24T00:27:08.748Z,8.40
2018-04-24T00:28:08.719Z,7.60
2018-04-24T00:30:01.616Z,9.10
2018-04-24T00:31:01.585Z,8.60
2018-04-24T00:32:54.482Z,11.10
2018-04-24T00:33:54.454Z,7.50
2018-04-24T00:35:47.348Z,6.50
2018-04-24T00:36:47.323Z,13.10
2018-04-24T00:38:40.224Z,8.50
2018-04-24T00:39:40.187Z,7.10
2018-04-24T00:41:33.655Z,7.60
2018-04-24T00:42:33.050Z,12.80
2018-04-24T00:44:25.953Z,11.90
2018-04-24T00:45:25.916Z,8.30
2018-04-24T00:47:18.816Z,10.10
2018-04-24T00:48:18.787Z,10.80
2018-04-24T00:50:12.183Z,8.90
2018-04-24T00:51:12.154Z,10.20
2018-04-24T00:53:05.048Z,5.90
2018-04-24T00:54:05.020Z,9.20
2018-04-24T00:55:57.915Z,8.50
2018-04-24T00:56:57.885Z,9.40
2018-04-24T00:58:50.781Z,7.40
2018-04-24T00:59:50.748Z,7.60
2018-04-24T01:01:44.137Z,7.10
2018-04-24T01:02:44.114Z,6.50
2018-04-24T01:04:37.005Z,11.50
2018-04-24T01:05:36.976Z,11.80
2018-04-24T01:07:29.871Z,8.90
2018-04-24T01:08:29.843Z,8.30
2018-04-24T01:10:22.744Z,8.30
2018-04-24T01:11:22.706Z,9.80
2018-04-24T01:13:16.094Z,8.20
2018-04-24T01:14:16.065Z,9.30
2018-04-24T01:16:08.963Z,14.00
2018-04-24T01:17:08.939Z,10.50
2018-04-24T01:19:01.830Z,10.00
2018-04-24T01:20:01.798Z,10.80
2018-04-24T01:21:54.705Z,9.50
2018-04-24T01:22:54.677Z,10.30
2018-04-24T01:24:47.570Z,8.00
2018-04-24T01:25:47.543Z,9.50
2018-04-24T01:27:40.434Z,8.00
2018-04-24T01:28:40.401Z,8.70
2018-04-24T01:30:33.299Z,8.30
2018-04-24T01:31:33.274Z,9.60
2018-04-24T01:33:26.655Z,11.40
2018-04-24T01:34:26.625Z,10.30
2018-04-24T01:36:19.520Z,9.00
2018-04-24T01:37:19.485Z,9.90
2018-04-24T01:39:12.383Z,10.80
2018-04-24T01:40:12.351Z,9.10
2018-04-24T01:42:05.247Z,9.70
2018-04-24T01:43:05.219Z,10.80
2018-04-24T01:44:58.120Z,9.90
2018-04-24T01:45:58.095Z,8.20
2018-04-24T01:47:50.983Z,8.40
2018-04-24T01:48:50.951Z,12.20
2018-04-24T01:50:43.846Z,9.20
2018-04-24T01:51:43.815Z,8.80
2018-04-24T01:53:36.729Z,9.10
2018-04-24T01:54:36.695Z,10.00
2018-04-24T01:56:30.085Z,7.60
2018-04-24T01:57:30.051Z,9.00
2018-04-24T01:59:22.947Z,7.40
2018-04-24T02:00:22.917Z,9.60
2018-04-24T02:02:15.817Z,12.70
2018-04-24T02:03:15.795Z,9.30
2018-04-24T02:05:08.690Z,11.10
2018-04-24T02:06:08.663Z,10.20
2018-04-24T02:08:01.557Z,9.50
2018-04-24T02:09:01.522Z,8.40
2018-04-24T02:10:54.424Z,9.70
2018-04-24T02:11:54.391Z,12.10
2018-04-24T02:13:47.288Z,11.90
2018-04-24T02:14:47.257Z,10.00
2018-04-24T02:16:40.153Z,12.00
2018-04-24T02:17:40.124Z,14.20
2018-04-24T02:19:33.019Z,10.20
2018-04-24T02:20:32.994Z,9.90
2018-04-24T02:22:25.887Z,13.10
2018-04-24T02:23:25.856Z,10.00
2018-04-24T02:25:18.752Z,18.10
2018-04-24T02:26:18.720Z,19.80
2018-04-24T02:28:11.616Z,19.20
2018-04-24T02:29:11.586Z,22.80
2018-04-24T02:31:04.481Z,18.60
2018-04-24T02:32:04.453Z,21.60
2018-04-24T02:33:57.351Z,19.00
2018-04-24T02:34:57.323Z,22.10
2018-04-24T02:36:50.268Z,17.00
2018-04-24T02:37:50.185Z,20.00
2018-04-24T02:39:43.082Z,17.80
2018-04-24T02:40:43.050Z,15.90
2018-04-24T02:42:36.516Z,16.30
2018-04-24T02:43:35.915Z,16.20
2018-04-24T02:45:28.813Z,14.90
2018-04-24T02:46:28.781Z,19.20
2018-04-24T02:48:21.685Z,22.50
2018-04-24T02:49:21.659Z,22.00
2018-04-24T02:51:14.545Z,21.10
2018-04-24T02:52:14.515Z,20.70
2018-04-24T02:54:07.412Z,20.00
2018-04-24T02:55:07.384Z,19.30
2018-04-24T02:57:00.277Z,17.00
2018-04-24T02:58:00.247Z,19.70
2018-04-24T02:59:53.143Z,18.40
2018-04-24T03:00:53.114Z,14.80
2018-04-24T03:02:46.495Z,14.70
2018-04-24T03:03:46.469Z,13.50
2018-04-24T03:05:39.377Z,12.70
2018-04-24T03:06:39.350Z,15.70
2018-04-24T03:08:32.286Z,12.00
2018-04-24T03:09:32.261Z,12.50
2018-04-24T03:11:25.159Z,17.60
2018-04-24T03:12:25.126Z,18.30
2018-04-24T03:14:18.028Z,21.80
2018-04-24T03:15:17.994Z,21.80
2018-04-24T03:17:11.377Z,20.10
2018-04-24T03:18:11.345Z,24.50
2018-04-24T03:20:04.731Z,23.50
2018-04-24T03:21:04.701Z,18.10
2018-04-24T03:22:57.599Z,13.10
2018-04-24T03:23:57.567Z,13.70
2018-04-24T03:25:50.962Z,16.10
2018-04-24T03:26:50.923Z,11.90
2018-04-24T03:28:43.829Z,16.90
2018-04-24T03:29:43.786Z,15.90
2018-04-24T03:31:36.669Z,23.50
2018-04-24T03:32:36.647Z,26.10
2018-04-24T03:34:29.544Z,20.50
2018-04-24T03:35:29.509Z,18.00
2018-04-24T03:37:22.896Z,14.00
2018-04-24T03:38:22.867Z,11.10
2018-04-24T03:40:15.785Z,12.00
2018-04-24T03:41:15.757Z,13.20
2018-04-24T03:43:09.219Z,14.30
2018-04-24T03:44:08.620Z,11.60
2018-04-24T03:46:01.512Z,12.30
2018-04-24T03:47:01.483Z,11.20
2018-04-24T03:48:54.380Z,15.00
2018-04-24T03:49:54.349Z,14.50
2018-04-24T03:51:47.242Z,21.60
2018-04-24T03:52:47.211Z,17.20
2018-04-24T03:54:40.105Z,19.20
2018-04-24T03:55:40.075Z,18.90
2018-04-24T03:57:32.975Z,17.30
2018-04-24T03:58:32.936Z,16.20
2018-04-24T04:00:25.905Z,19.10
2018-04-24T04:01:25.804Z,13.20
2018-04-24T04:03:18.742Z,13.50
2018-04-24T04:04:18.709Z,11.60
2018-04-24T04:06:11.606Z,10.70
2018-04-24T04:07:11.577Z,11.50
2018-04-24T04:09:04.966Z,13.40
2018-04-24T04:10:04.938Z,13.60
2018-04-24T04:11:57.832Z,11.10
2018-04-24T04:12:57.801Z,11.10
2018-04-24T04:14:50.772Z,9.80
2018-04-24T04:17:03.561Z,11.20
2018-04-24T04:18:03.539Z,12.30
2018-04-24T04:19:56.428Z,14.50
2018-04-24T04:20:56.405Z,12.40
2018-04-24T04:22:49.786Z,9.30
2018-04-24T04:23:49.758Z,11.70
2018-04-24T04:25:42.649Z,9.80
2018-04-24T04:26:42.629Z,10.50
2018-04-24T04:28:35.517Z,10.10
2018-04-24T04:29:35.484Z,10.20
2018-04-24T04:31:28.373Z,8.40
2018-04-24T04:32:28.356Z,10.50
2018-04-24T04:34:21.245Z,10.50
2018-04-24T04:35:21.220Z,8.00
2018-04-24T04:37:14.110Z,10.70
2018-04-24T04:38:14.079Z,9.50
2018-04-24T04:40:06.965Z,15.10
2018-04-24T04:41:06.944Z,12.00
2018-04-24T04:43:00.044Z,8.80
2018-04-24T04:44:00.373Z,11.70
2018-04-24T04:45:52.785Z,9.00
2018-04-24T04:46:52.737Z,8.70
2018-04-24T04:48:45.694Z,11.20
2018-04-24T04:49:45.596Z,12.60
2018-04-24T04:51:38.501Z,11.60
2018-04-24T04:52:38.463Z,11.10
2018-04-24T04:54:31.382Z,10.70
2018-04-24T04:55:31.327Z,9.90
2018-04-24T04:57:24.225Z,8.30
2018-04-24T04:58:24.194Z,6.80
2018-04-24T05:00:17.158Z,11.40
2018-04-24T05:01:17.121Z,11.70
2018-04-24T05:03:10.109Z,8.20
2018-04-24T05:04:10.071Z,10.70
2018-04-24T05:06:03.022Z,11.80
2018-04-24T05:07:02.987Z,12.20
2018-04-24T05:08:56.062Z,8.60
2018-04-24T05:09:56.038Z,9.70
2018-04-24T05:11:49.003Z,8.10
2018-04-24T05:12:48.973Z,8.40
2018-04-24T05:14:42.032Z,10.20
2018-04-24T05:15:42.007Z,8.70
2018-04-24T05:17:35.093Z,12.10
2018-04-24T05:18:35.070Z,6.40
2018-04-24T05:20:28.079Z,9.70
2018-04-24T05:21:28.032Z,9.10
2018-04-24T05:23:21.056Z,10.20
2018-04-24T05:24:21.002Z,7.10
2018-04-24T05:26:13.900Z,10.90
2018-04-24T05:27:13.864Z,12.80
2018-04-24T05:29:07.344Z,9.90
2018-04-24T05:30:07.299Z,8.90
2018-04-24T05:32:00.240Z,11.50
2018-04-24T05:33:00.215Z,9.30
2018-04-24T05:34:53.114Z,9.90
2018-04-24T05:35:53.083Z,10.50
2018-04-24T05:37:45.973Z,7.90
2018-04-24T05:38:45.948Z,7.90
2018-04-24T05:40:39.342Z,9.30
2018-04-24T05:41:39.320Z,12.40
2018-04-24T05:43:32.208Z,9.10
2018-04-24T05:44:32.193Z,9.10
2018-04-24T05:46:25.085Z,11.80
2018-04-24T05:47:25.052Z,11.20
2018-04-24T05:49:17.941Z,7.10
2018-04-24T05:50:17.925Z,10.30
2018-04-24T05:52:11.313Z,8.30
2018-04-24T05:53:11.283Z,8.20
2018-04-24T05:55:04.174Z,7.80
2018-04-24T05:56:04.164Z,9.20
2018-04-24T05:57:57.111Z,9.40
2018-04-24T05:58:57.020Z,8.10
2018-04-24T06:00:49.983Z,9.00
2018-04-24T06:01:49.889Z,11.10
2018-04-24T06:03:42.795Z,8.60
2018-04-24T06:04:42.758Z,11.90
2018-04-24T06:06:35.657Z,8.80
2018-04-24T06:07:35.627Z,10.90
2018-04-24T06:09:28.525Z,7.40
2018-04-24T06:10:28.504Z,9.80
2018-04-24T06:12:21.877Z,8.70
2018-04-24T06:13:21.866Z,8.50
2018-04-24T06:15:14.757Z,7.80
2018-04-24T06:16:14.736Z,9.70
2018-04-24T06:18:08.120Z,8.20
2018-04-24T06:19:08.099Z,11.90
2018-04-24T06:21:01.000Z,9.20
2018-04-24T06:22:00.965Z,8.20
2018-04-24T06:23:53.874Z,8.50
2018-04-24T06:24:53.857Z,9.40
2018-04-24T06:26:46.747Z,10.40
2018-04-24T06:27:46.729Z,9.10
2018-04-24T06:29:39.613Z,7.80
2018-04-24T06:30:39.597Z,8.90
2018-04-24T06:32:32.500Z,7.60
2018-04-24T06:33:32.464Z,8.20
2018-04-24T06:35:25.351Z,8.40
2018-04-24T06:36:25.334Z,7.40
2018-04-24T06:38:18.260Z,9.60
2018-04-24T06:39:18.207Z,9.70
2018-04-24T06:41:11.124Z,15.20
2018-04-24T06:42:11.090Z,13.00
2018-04-24T06:44:03.985Z,13.50
2018-04-24T06:45:03.957Z,19.20
2018-04-24T06:46:56.946Z,13.30
2018-04-24T06:47:56.829Z,16.20
2018-04-24T06:49:49.725Z,12.10
2018-04-24T06:50:49.700Z,11.00
2018-04-24T06:52:42.601Z,9.40
2018-04-24T06:53:42.574Z,10.20
2018-04-24T06:55:35.476Z,10.10
2018-04-24T06:56:35.454Z,10.90
2018-04-24T06:58:28.853Z,8.50
2018-04-24T06:59:28.822Z,9.90
2018-04-24T07:01:22.238Z,12.20
2018-04-24T07:02:22.193Z,11.40
2018-04-24T07:04:15.114Z,9.10
2018-04-24T07:05:15.067Z,7.40
2018-04-24T07:07:08.489Z,10.70
2018-04-24T07:08:08.442Z,10.10
2018-04-24T07:10:01.837Z,12.50
2018-04-24T07:11:01.808Z,13.10
2018-04-24T07:12:54.708Z,8.60
2018-04-24T07:13:54.689Z,10.10
2018-04-24T07:15:47.584Z,9.70
2018-04-24T07:16:47.604Z,7.50
2018-04-24T07:18:40.465Z,6.10
2018-04-24T07:19:40.437Z,10.10
2018-04-24T07:21:33.347Z,8.10
2018-04-24T07:22:33.314Z,6.00
2018-04-24T07:24:26.245Z,6.10
2018-04-24T07:25:26.201Z,5.30
2018-04-24T07:27:19.117Z,7.00
2018-04-24T07:28:19.120Z,7.40
2018-04-24T07:30:11.987Z,6.80
2018-04-24T07:31:11.960Z,7.40
2018-04-24T07:33:04.897Z,5.60
2018-04-24T07:34:04.854Z,5.90
2018-04-24T07:35:57.743Z,6.80
2018-04-24T07:36:57.749Z,9.70
2018-04-24T07:38:51.139Z,6.10
2018-04-24T07:39:51.099Z,7.30
2018-04-24T07:41:44.002Z,4.80
2018-04-24T07:42:43.993Z,8.40
2018-04-24T07:44:36.886Z,5.20
2018-04-24T07:45:36.870Z,6.30
2018-04-24T07:47:29.787Z,5.70
2018-04-24T07:48:29.746Z,4.90
2018-04-24T07:50:23.134Z,9.00
2018-04-24T07:51:23.117Z,5.40
2018-04-24T07:53:16.585Z,6.10
2018-04-24T07:54:16.000Z,4.60
2018-04-24T07:56:08.920Z,3.70
2018-04-24T07:57:08.881Z,6.70
2018-04-24T07:59:02.278Z,5.40
2018-04-24T08:00:02.273Z,5.30
2018-04-24T08:01:55.652Z,4.30
2018-04-24T08:02:55.626Z,3.80
2018-04-24T08:04:48.529Z,6.80
2018-04-24T08:05:48.510Z,6.60
2018-04-24T08:07:41.417Z,8.40
2018-04-24T08:08:41.396Z,4.40
2018-04-24T08:10:34.305Z,5.20
2018-04-24T08:11:34.275Z,5.60
2018-04-24T08:13:27.672Z,8.40
2018-04-24T08:14:27.656Z,8.90
2018-04-24T08:16:20.565Z,6.20
2018-04-24T08:17:20.534Z,4.70
2018-04-24T08:19:13.477Z,6.60
2018-04-24T08:20:13.413Z,3.60
2018-04-24T08:22:06.342Z,5.00
2018-04-24T08:23:06.297Z,5.50
2018-04-24T08:24:59.696Z,9.30
2018-04-24T08:25:59.679Z,5.90
2018-04-24T08:27:52.585Z,4.90
2018-04-24T08:28:52.561Z,7.40
2018-04-24T08:30:45.474Z,4.70
2018-04-24T08:31:45.450Z,5.90
2018-04-24T08:33:38.928Z,5.20
2018-04-24T08:34:38.822Z,7.60
2018-04-24T08:36:31.774Z,5.00
2018-04-24T08:37:31.702Z,4.50
2018-04-24T08:39:24.623Z,7.60
2018-04-24T08:40:24.592Z,7.70
2018-04-24T08:42:18.012Z,7.50
2018-04-24T08:43:17.971Z,8.00
2018-04-24T08:45:10.896Z,6.00
2018-04-24T08:46:10.864Z,6.60
2018-04-24T08:48:03.814Z,3.20
2018-04-24T08:49:03.749Z,6.40
2018-04-24T08:50:56.653Z,5.60
2018-04-24T08:51:56.628Z,6.20
2018-04-24T08:53:49.534Z,5.50
2018-04-24T08:54:49.513Z,5.10
2018-04-24T08:56:42.421Z,3.10
2018-04-24T08:57:42.403Z,8.30
2018-04-24T08:59:35.308Z,5.90
2018-04-24T09:00:35.293Z,4.40
2018-04-24T09:02:28.724Z,7.40
2018-04-24T09:03:28.672Z,7.10
2018-04-24T09:05:22.059Z,6.20
2018-04-24T09:06:22.048Z,4.00
2018-04-24T09:08:15.453Z,4.60
2018-04-24T09:09:15.421Z,3.60
2018-04-24T09:11:08.331Z,6.70
2018-04-24T09:12:08.305Z,7.10
2018-04-24T09:14:01.221Z,3.60
2018-04-24T09:15:01.192Z,4.00
2018-04-24T09:16:54.649Z,3.90
2018-04-24T09:17:54.594Z,3.40
2018-04-24T09:19:47.519Z,4.20
2018-04-24T09:20:47.479Z,3.60
2018-04-24T09:22:40.375Z,3.80
2018-04-24T09:23:40.352Z,5.20
2018-04-24T09:25:33.262Z,6.80
2018-04-24T09:26:33.238Z,3.90
2018-04-24T09:28:26.192Z,4.30
2018-04-24T09:29:26.121Z,6.80
2018-04-24T09:31:19.036Z,3.80
2018-04-24T09:32:18.999Z,3.50
2018-04-24T09:34:12.417Z,5.00
2018-04-24T09:35:12.371Z,5.60
2018-04-24T09:37:05.766Z,5.70
2018-04-24T09:38:05.750Z,4.70
2018-04-24T09:39:58.662Z,6.40
2018-04-24T09:40:58.627Z,4.20
2018-04-24T09:42:52.029Z,6.20
2018-04-24T09:43:52.078Z,4.90
2018-04-24T09:45:44.902Z,3.90
2018-04-24T09:46:44.882Z,5.10
2018-04-24T09:48:37.783Z,4.70
2018-04-24T09:49:37.767Z,5.40
2018-04-24T09:51:30.729Z,4.40
2018-04-24T09:52:30.640Z,4.70
2018-04-24T09:54:24.048Z,7.30
2018-04-24T09:55:24.012Z,4.10
2018-04-24T09:57:17.447Z,4.00
2018-04-24T09:58:17.386Z,6.30
2018-04-24T10:00:10.308Z,4.80
2018-04-24T10:01:10.270Z,6.00
2018-04-24T10:03:03.674Z,5.50
2018-04-24T10:04:03.645Z,5.70
2018-04-24T10:05:56.548Z,6.50
2018-04-24T10:06:56.528Z,5.60
2018-04-24T10:08:49.437Z,6.80
2018-04-24T10:09:49.409Z,5.00
2018-04-24T10:11:42.847Z,7.80
2018-04-24T10:12:42.798Z,5.90
2018-04-24T10:14:35.708Z,3.50
2018-04-24T10:15:35.675Z,3.10
2018-04-24T10:17:28.577Z,4.30
2018-04-24T10:18:28.557Z,4.50
2018-04-24T10:20:21.460Z,6.60
2018-04-24T10:21:21.437Z,6.60
2018-04-24T10:23:14.355Z,6.40
2018-04-24T10:24:14.318Z,5.90
2018-04-24T10:26:07.235Z,3.70
2018-04-24T10:27:07.197Z,6.30
2018-04-24T10:29:00.619Z,5.00
2018-04-24T10:30:00.576Z,8.10
2018-04-24T10:31:53.490Z,6.50
2018-04-24T10:32:53.454Z,6.50
2018-04-24T10:34:46.356Z,6.30
2018-04-24T10:35:46.339Z,6.80
2018-04-24T10:37:39.242Z,3.90
2018-04-24T10:38:39.216Z,4.50
2018-04-24T10:40:32.120Z,5.90
2018-04-24T10:41:32.106Z,5.90
2018-04-24T10:43:25.034Z,6.00
2018-04-24T10:44:24.996Z,7.30
2018-04-24T10:46:17.904Z,5.30
2018-04-24T10:47:17.873Z,5.80
2018-04-24T10:49:11.295Z,4.80
2018-04-24T10:50:11.262Z,6.40
2018-04-24T10:52:04.726Z,6.60
2018-04-24T10:53:04.137Z,5.80
2018-04-24T10:54:57.609Z,7.80
2018-04-24T10:55:57.583Z,5.60
2018-04-24T10:57:50.467Z,5.60
2018-04-24T10:58:50.416Z,4.50
2018-04-24T11:00:43.370Z,4.40
2018-04-24T11:01:43.304Z,4.70
2018-04-24T11:03:36.253Z,4.60
2018-04-24T11:04:36.188Z,8.10
2018-04-24T11:06:29.104Z,6.40
2018-04-24T11:07:29.067Z,5.40
2018-04-24T11:09:22.028Z,3.60
2018-04-24T11:10:21.960Z,6.00
2018-04-24T11:12:14.863Z,7.50
2018-04-24T11:13:14.840Z,8.50
2018-04-24T11:15:07.764Z,7.10
2018-04-24T11:16:07.728Z,9.30
2018-04-24T11:18:00.692Z,8.30
2018-04-24T11:19:00.612Z,8.40
2018-04-24T11:20:54.015Z,3.70
2018-04-24T11:21:53.993Z,5.10
2018-04-24T11:23:46.896Z,7.60
2018-04-24T11:24:46.872Z,8.00
2018-04-24T11:26:39.836Z,3.80
2018-04-24T11:27:39.757Z,7.50
2018-04-24T11:29:32.707Z,5.00
2018-04-24T11:30:32.650Z,4.20
2018-04-24T11:32:25.601Z,5.60
2018-04-24T11:33:25.541Z,3.70
2018-04-24T11:35:18.937Z,6.40
2018-04-24T11:36:18.912Z,5.30
2018-04-24T11:38:11.884Z,4.50
2018-04-24T11:39:11.799Z,3.80
2018-04-24T11:41:04.750Z,4.10
2018-04-24T11:42:04.684Z,8.00
2018-04-24T11:43:57.730Z,6.10
2018-04-24T11:44:57.672Z,5.00
2018-04-24T11:46:51.120Z,11.70
2018-04-24T11:47:51.051Z,4.40
2018-04-24T11:49:43.964Z,9.70
2018-04-24T11:50:43.943Z,7.80
2018-04-24T11:52:37.340Z,4.40
2018-04-24T11:53:37.324Z,4.90
2018-04-24T11:55:30.229Z,6.50
2018-04-24T11:56:30.211Z,11.60
2018-04-24T11:58:23.115Z,10.70
2018-04-24T11:59:23.097Z,6.70
2018-04-24T12:01:16.543Z,5.00
2018-04-24T12:02:16.470Z,4.50
2018-04-24T12:04:09.397Z,10.30
2018-04-24T12:05:09.366Z,7.00
2018-04-24T12:07:02.269Z,5.10
2018-04-24T12:08:02.253Z,5.20
2018-04-24T12:09:55.161Z,8.60
2018-04-24T12:10:55.140Z,9.90
2018-04-24T12:12:48.124Z,5.50
2018-04-24T12:13:48.031Z,7.00
2018-04-24T12:15:40.994Z,5.50
2018-04-24T12:16:40.923Z,5.00
2018-04-24T12:18:33.826Z,10.00
2018-04-24T12:19:33.821Z,7.50
2018-04-24T12:21:26.728Z,8.60
2018-04-24T12:22:26.697Z,10.00
2018-04-24T12:24:19.631Z,8.10
2018-04-24T12:25:19.580Z,8.20
2018-04-24T12:27:12.486Z,4.10
2018-04-24T12:28:12.474Z,4.40
2018-04-24T12:30:05.914Z,7.60
2018-04-24T12:31:05.868Z,6.40
2018-04-24T12:32:58.794Z,5.10
2018-04-24T12:33:58.755Z,5.10
2018-04-24T12:35:52.730Z,4.80
2018-04-24T12:36:52.133Z,5.60
2018-04-24T12:38:45.143Z,3.90
2018-04-24T12:39:45.026Z,3.00
2018-04-24T12:41:37.929Z,6.70
2018-04-24T12:42:37.919Z,5.80
2018-04-24T12:44:30.874Z,7.40
2018-04-24T12:45:30.806Z,8.30
2018-04-24T12:47:24.268Z,8.20
2018-04-24T12:48:24.189Z,6.40
2018-04-24T12:50:17.595Z,8.70
2018-04-24T12:51:17.565Z,8.30
2018-04-24T12:53:10.476Z,6.20
2018-04-24T12:54:10.452Z,7.20
2018-04-24T12:56:03.415Z,8.50
2018-04-24T12:57:03.336Z,10.40
2018-04-24T12:58:56.246Z,8.80
2018-04-24T12:59:56.228Z,6.50
2018-04-24T13:01:49.148Z,6.60
2018-04-24T13:02:49.128Z,5.70
2018-04-24T13:04:42.644Z,5.90
2018-04-24T13:05:42.013Z,7.90
2018-04-24T13:07:34.917Z,6.40
2018-04-24T13:08:34.898Z,5.90
2018-04-24T13:10:27.886Z,9.50
2018-04-24T13:11:27.785Z,7.60
2018-04-24T13:13:20.688Z,7.60
2018-04-24T13:14:20.672Z,8.40
2018-04-24T13:16:13.577Z,7.70
2018-04-24T13:17:13.564Z,5.80
2018-04-24T13:19:07.030Z,8.10
2018-04-24T13:20:06.949Z,7.10
2018-04-24T13:21:59.931Z,7.20
2018-04-24T13:22:59.909Z,7.40
2018-04-24T13:24:52.772Z,9.20
2018-04-24T13:25:52.788Z,7.10
2018-04-24T13:27:46.129Z,8.00
2018-04-24T13:28:46.110Z,8.60
2018-04-24T13:30:39.027Z,8.50
2018-04-24T13:31:39.005Z,6.30
2018-04-24T13:33:31.958Z,8.60
2018-04-24T13:34:31.888Z,8.30
2018-04-24T13:36:24.785Z,8.80
2018-04-24T13:37:24.768Z,7.20
2018-04-24T13:39:18.167Z,8.20
2018-04-24T13:40:18.149Z,10.90
2018-04-24T13:42:11.138Z,5.70
2018-04-24T13:43:11.049Z,6.70
2018-04-24T13:45:03.938Z,8.70
2018-04-24T13:46:03.919Z,7.20
2018-04-24T13:47:56.820Z,5.50
2018-04-24T13:48:56.836Z,5.40
2018-04-24T13:50:50.205Z,8.60
2018-04-24T13:51:50.186Z,10.70
2018-04-24T13:53:43.105Z,12.50
2018-04-24T13:54:43.064Z,11.60
2018-04-24T13:56:36.497Z,6.40
2018-04-24T13:57:36.444Z,7.60
2018-04-24T13:59:29.347Z,9.60
2018-04-24T14:00:29.328Z,11.30
2018-04-24T14:02:22.740Z,6.80
2018-04-24T14:03:22.705Z,9.40
2018-04-24T14:05:16.134Z,8.50
2018-04-24T14:06:16.091Z,9.90
2018-04-24T14:08:09.032Z,9.30
2018-04-24T14:09:08.973Z,11.50
2018-04-24T14:11:01.935Z,12.20
2018-04-24T14:12:01.850Z,8.80
2018-04-24T14:13:54.799Z,11.00
2018-04-24T14:14:54.741Z,11.90
2018-04-24T14:16:47.680Z,9.10
2018-04-24T14:17:47.633Z,14.40
2018-04-24T14:19:40.531Z,7.90
2018-04-24T14:20:40.514Z,9.80
2018-04-24T14:22:33.484Z,10.00
2018-04-24T14:23:33.396Z,10.00
2018-04-24T14:25:26.353Z,7.90
2018-04-24T14:26:26.283Z,9.90
2018-04-24T14:28:19.208Z,7.00
2018-04-24T14:29:19.192Z,6.20
2018-04-24T14:31:12.083Z,9.80
2018-04-24T14:32:12.060Z,11.50
2018-04-24T14:34:04.964Z,9.70
2018-04-24T14:35:04.953Z,7.60
2018-04-24T14:36:57.903Z,9.40
2018-04-24T14:37:57.827Z,8.90
2018-04-24T14:39:51.805Z,11.50
2018-04-24T14:40:51.207Z,9.00
2018-04-24T14:42:44.147Z,15.80
2018-04-24T14:43:44.108Z,10.80
2018-04-24T14:45:37.528Z,8.10
2018-04-24T14:46:37.469Z,8.80
2018-04-24T14:48:30.865Z,10.20
2018-04-24T14:49:30.844Z,8.80
2018-04-24T14:51:23.779Z,29.20
2018-04-24T14:52:23.727Z,28.70
2018-04-24T14:54:17.203Z,28.30
2018-04-24T14:55:17.163Z,21.90
2018-04-24T14:57:10.558Z,14.40
2018-04-24T14:58:10.537Z,11.50
2018-04-24T15:00:03.443Z,10.80
2018-04-24T15:01:03.418Z,12.20
2018-04-24T15:02:56.815Z,13.80
2018-04-24T15:03:56.797Z,13.90
2018-04-24T15:05:49.698Z,12.70
2018-04-24T15:06:49.679Z,14.20
2018-04-24T15:08:43.096Z,11.30
2018-04-24T15:09:43.060Z,12.30
2018-04-24T15:11:35.969Z,10.50
2018-04-24T15:12:35.943Z,15.10
2018-04-24T15:14:28.941Z,15.80
2018-04-24T15:15:28.924Z,13.40
2018-04-24T15:17:22.314Z,11.90
2018-04-24T15:18:22.373Z,11.30
2018-04-24T15:20:15.203Z,9.10
2018-04-24T15:21:15.177Z,14.50
2018-04-24T15:23:08.088Z,10.30
2018-04-24T15:24:08.059Z,10.60
2018-04-24T15:26:01.456Z,8.70
2018-04-24T15:27:01.439Z,8.50
2018-04-24T15:28:54.835Z,13.00
2018-04-24T15:29:54.812Z,11.60
2018-04-24T15:31:47.716Z,12.70
2018-04-24T15:32:47.692Z,12.90
2018-04-24T15:34:40.597Z,12.20
2018-04-24T15:35:40.573Z,15.40
2018-04-24T15:37:33.474Z,10.10
2018-04-24T15:38:33.454Z,13.30
2018-04-24T15:40:26.435Z,10.90
2018-04-24T15:41:26.334Z,11.20
2018-04-24T15:43:19.249Z,8.80
2018-04-24T15:44:19.230Z,9.20
2018-04-24T15:46:12.620Z,10.50
2018-04-24T15:47:12.604Z,13.70
2018-04-24T15:49:05.504Z,9.80
2018-04-24T15:50:05.486Z,11.50
2018-04-24T15:51:58.383Z,12.10
2018-04-24T15:52:58.357Z,10.10
2018-04-24T15:54:51.313Z,11.70
2018-04-24T15:55:51.241Z,10.70
2018-04-24T15:57:44.642Z,12.60
2018-04-24T15:58:44.611Z,10.80
2018-04-24T16:00:38.584Z,11.10
2018-04-24T16:01:37.988Z,12.30
2018-04-24T16:03:30.885Z,12.30
2018-04-24T16:04:30.870Z,9.60
2018-04-24T16:06:24.257Z,11.90
2018-04-24T16:07:24.239Z,17.10
2018-04-24T16:09:17.137Z,12.20
2018-04-24T16:10:17.112Z,12.40
2018-04-24T16:12:10.042Z,13.90
2018-04-24T16:13:09.998Z,13.20
2018-04-24T16:15:02.889Z,13.80
2018-04-24T16:16:02.879Z,10.20
2018-04-24T16:17:55.778Z,13.50
2018-04-24T16:18:55.759Z,16.30
2018-04-24T16:20:48.667Z,11.00
2018-04-24T16:21:48.647Z,9.70
2018-04-24T16:23:41.545Z,10.30
2018-04-24T16:24:41.523Z,11.20
2018-04-24T16:26:34.422Z,15.30
2018-04-24T16:27:34.393Z,10.80
2018-04-24T16:29:27.297Z,12.70
2018-04-24T16:30:27.270Z,11.80
2018-04-24T16:32:20.175Z,10.90
2018-04-24T16:33:20.153Z,13.10
2018-04-24T16:35:13.546Z,13.60
2018-04-24T16:36:13.522Z,15.60
2018-04-24T16:38:06.426Z,10.60
2018-04-24T16:39:06.395Z,12.90
2018-04-24T16:40:59.317Z,11.90
2018-04-24T16:41:59.276Z,11.50
2018-04-24T16:43:52.677Z,9.90
2018-04-24T16:44:52.658Z,13.60
2018-04-24T16:46:45.557Z,14.90
2018-04-24T16:47:45.534Z,12.40
2018-04-24T16:49:38.437Z,13.20
2018-04-24T16:50:38.413Z,14.00
2018-04-24T16:52:31.323Z,13.70
2018-04-24T16:53:31.299Z,13.90
2018-04-24T16:55:24.198Z,13.60
2018-04-24T16:56:24.174Z,14.20
2018-04-24T16:58:17.569Z,16.50
2018-04-24T16:59:17.550Z,12.50
2018-04-24T17:01:10.448Z,13.50
2018-04-24T17:02:10.423Z,10.10
2018-04-24T17:04:03.404Z,12.20
2018-04-24T17:05:03.303Z,10.70
2018-04-24T17:06:56.697Z,13.00
2018-04-24T17:07:56.673Z,12.90
2018-04-24T17:09:49.576Z,11.70
2018-04-24T17:10:49.552Z,12.80
2018-04-24T17:12:42.452Z,12.20
2018-04-24T17:13:42.424Z,13.60
2018-04-24T17:15:35.820Z,10.80
2018-04-24T17:16:35.798Z,13.20
2018-04-24T17:18:28.699Z,9.50
2018-04-24T17:19:28.677Z,12.20
2018-04-24T17:21:21.575Z,13.00
2018-04-24T17:22:21.555Z,13.80
2018-04-24T17:24:14.470Z,12.00
2018-04-24T17:25:14.450Z,12.30
2018-04-24T17:27:07.373Z,15.40
2018-04-24T17:28:07.322Z,14.00
2018-04-24T17:30:00.224Z,14.00
2018-04-24T17:31:00.201Z,15.80
2018-04-24T17:32:53.100Z,11.60
2018-04-24T17:33:53.077Z,9.70
2018-04-24T17:35:45.984Z,12.30
2018-04-24T17:36:45.959Z,13.30
2018-04-24T17:38:39.346Z,9.80
2018-04-24T17:39:39.330Z,12.50
2018-04-24T17:41:32.228Z,10.10
2018-04-24T17:42:32.207Z,11.50
2018-04-24T17:44:25.107Z,13.20
2018-04-24T17:45:25.081Z,11.10
2018-04-24T17:47:17.989Z,10.30
2018-04-24T17:48:17.963Z,13.40
2018-04-24T17:50:11.354Z,12.30
2018-04-24T17:51:11.333Z,12.30
2018-04-24T17:53:04.234Z,12.20
2018-04-24T17:54:04.214Z,12.50
2018-04-24T17:55:57.112Z,11.10
2018-04-24T17:56:57.091Z,12.30
2018-04-24T17:58:50.481Z,10.40
2018-04-24T17:59:50.455Z,13.00
2018-04-24T18:01:43.352Z,10.70
2018-04-24T18:02:43.332Z,9.40
2018-04-24T18:04:36.234Z,13.80
2018-04-24T18:05:36.210Z,12.30
2018-04-24T18:07:29.113Z,10.90
2018-04-24T18:08:29.090Z,8.70
2018-04-24T18:10:21.989Z,12.90
2018-04-24T18:11:22.088Z,12.90
2018-04-24T18:13:14.863Z,14.70
2018-04-24T18:14:14.841Z,14.60
2018-04-24T18:16:07.735Z,10.70
2018-04-24T18:17:07.719Z,13.50
2018-04-24T18:19:00.617Z,9.90
2018-04-24T18:20:00.589Z,10.10
2018-04-24T18:21:53.488Z,9.80
2018-04-24T18:22:53.464Z,8.80
2018-04-24T18:24:46.365Z,16.00
2018-04-24T18:25:46.346Z,13.70
2018-04-24T18:27:39.321Z,11.10
2018-04-24T18:28:39.222Z,11.00
2018-04-24T18:30:32.126Z,14.10
2018-04-24T18:31:32.092Z,13.50
2018-04-24T18:33:24.986Z,14.90
2018-04-24T18:34:24.969Z,14.00
2018-04-24T18:36:17.870Z,13.70
2018-04-24T18:37:17.843Z,15.20
2018-04-24T18:39:11.236Z,12.30
2018-04-24T18:40:11.233Z,12.80
2018-04-24T18:42:04.686Z,11.70
2018-04-24T18:43:04.580Z,15.80
2018-04-24T18:44:57.481Z,10.10
2018-04-24T18:45:57.457Z,11.80
2018-04-24T18:47:50.363Z,11.30
2018-04-24T18:48:50.341Z,16.20
2018-04-24T18:50:43.742Z,17.50
2018-04-24T18:51:43.720Z,20.90
2018-04-24T18:53:36.614Z,18.00
2018-04-24T18:54:36.592Z,11.90